Emu Arrow — C6OR4 — position and weather

sailwx.info

Track history (hours):
 
Tides and Currents Weather Stations Pressure Air Temp Water Temp Dewpoint Dewpoint Depression Visibility Wind Speed Wind Dir Waves Ship Positions

Emu Arrow

Last reported at 2017-Dec-08 12:00 UTC. Time now 2017-Dec-12 04:44 UTC.
Position N 50°12' E 171°36'.

Length 200 m; draft 8.7 m.

Type: Cargo ship. MMSI: 309805000.

Wind from 320 at 14 knots

Barometer 1017.7 mb
Air temperature 2.6 ° C
Visibility: greater than 5.4 NM
Dewpoint -1.3 ° C
Water temperature 2.0 ° C

Date/timePositionNaut miles runAvg speedWind from/ knotsBaromVisibWave heightAir tempDewpointWater temp
2017-Dec-08 12:00N 50°12' E 171°36'57311.0 320 / 141017.7 5.4 2.6-1.3 2.0
2017-Dec-06 08:00N 48°42' E 157°06'198 8.2 050 / 351003.7 2.2 0.5 0.5 2.0
2017-Dec-05 08:00N 46°24' E 153°36'20811.5 040 / 381003.0 2.2 0.5 0.5 2.0
2017-Dec-04 14:00N 44°12' E 149°48'39312.1 040 / 61016.4 5.4 2.0-4.1 5.2
2017-Dec-03 05:31N 41°37' E 141°34'014.8
2017-Dec-03 05:30N 41°37' E 141°34'714.4
2017-Dec-03 05:00N 41°38' E 141°24'713.2
2017-Dec-03 04:30N 41°37' E 141°15'714.5
2017-Dec-03 04:00N 41°38' E 141°06'714.0
2017-Dec-03 03:30N 41°38' E 140°56'713.6
2017-Dec-03 03:00N 41°35' E 140°48'713.6
2017-Dec-03 02:30N 41°31' E 140°41'815.0
2017-Dec-03 02:00N 41°26' E 140°33'714.9
2017-Dec-03 01:30N 41°22' E 140°25'714.7
2017-Dec-03 01:00N 41°19' E 140°16'  
Track history (hours):
 
Tides and Currents Weather Stations Pressure Air Temp Water Temp Dewpoint Dewpoint Depression Visibility Wind Speed Wind Dir Waves Ship Positions

Emu Arrow

Last reported at 2017-Dec-08 12:00 UTC. Time now 2017-Dec-12 04:44 UTC.
Position N 50°12' E 171°36'.

Length 200 m; draft 8.7 m.

Type: Cargo ship. MMSI: 309805000.

Wind from 320 at 14 knots

Barometer 1017.7 mb
Air temperature 2.6 ° C
Visibility: greater than 5.4 NM
Dewpoint -1.3 ° C
Water temperature 2.0 ° C

Date/timePositionNaut miles runAvg speedWind from/ knotsBaromVisibWave heightAir tempDewpointWater temp
2017-Dec-08 12:00N 50°12' E 171°36'57311.0 320 / 141017.7 5.4 2.6-1.3 2.0
2017-Dec-06 08:00N 48°42' E 157°06'198 8.2 050 / 351003.7 2.2 0.5 0.5 2.0
2017-Dec-05 08:00N 46°24' E 153°36'20811.5 040 / 381003.0 2.2 0.5 0.5 2.0
2017-Dec-04 14:00N 44°12' E 149°48'39312.1 040 / 61016.4 5.4 2.0-4.1 5.2
2017-Dec-03 05:31N 41°37' E 141°34'014.8
2017-Dec-03 05:30N 41°37' E 141°34'714.4
2017-Dec-03 05:00N 41°38' E 141°24'713.2
2017-Dec-03 04:30N 41°37' E 141°15'714.5
2017-Dec-03 04:00N 41°38' E 141°06'714.0
2017-Dec-03 03:30N 41°38' E 140°56'713.6
2017-Dec-03 03:00N 41°35' E 140°48'713.6
2017-Dec-03 02:30N 41°31' E 140°41'815.0
2017-Dec-03 02:00N 41°26' E 140°33'714.9
2017-Dec-03 01:30N 41°22' E 140°25'714.7
2017-Dec-03 01:00N 41°19' E 140°16'  

Dump ship's entire track history